Time,TemperatureF,DewpointF,PressureIn,WindDirection,WindDirectionDegrees,WindSpeedMPH,WindSpeedGustMPH,Humidity,HourlyPrecipIn,Conditions,Clouds,dailyrainin,SoftwareType,DateUTC
2013-03-04 00:03:00,22.6,18.5,30.05,WNW,287,0.0,4.7,84,0.00,,OVC,0.00,VWS V14.00,2013-03-04 05:03:00,
2013-03-04 05:02:00,18.9,14.2,29.91,WSW,242,3.0,7.6,82,0.00,,OVC,0.00,VWS V14.00,2013-03-04 10:02:00,
2013-03-04 05:05:00,18.9,14.2,29.91,WSW,242,3.0,7.6,82,0.00,,OVC,0.00,VWS V14.00,2013-03-04 10:05:00,
2013-03-04 05:07:00,18.9,14.2,29.91,WSW,242,3.0,7.6,82,0.00,,OVC,0.00,VWS V14.00,2013-03-04 10:07:00,
2013-03-04 05:12:00,18.9,14.2,29.91,WSW,242,3.0,7.6,82,0.00,,OVC,0.00,VWS V14.00,2013-03-04 10:12:00,
2013-03-04 06:52:00,18.1,12.9,29.94,West,260,6.3,7.6,80,0.00,,OVC,0.00,VWS V14.00,2013-03-04 11:52:00,
2013-03-04 06:55:00,18.1,12.9,29.94,West,260,6.3,7.6,80,0.00,,OVC,0.00,VWS V14.00,2013-03-04 11:55:00,
2013-03-04 06:57:00,18.1,12.9,29.94,West,260,6.3,7.6,80,0.00,,OVC,0.00,VWS V14.00,2013-03-04 11:57:00,
2013-03-04 07:02:00,18.1,12.9,29.94,West,260,6.3,7.6,80,0.00,,OVC,0.00,VWS V14.00,2013-03-04 12:02:00,
2013-03-04 09:12:00,18.7,12.9,29.94,West,274,10.4,11.7,78,0.00,,OVC,0.00,VWS V14.00,2013-03-04 14:12:00,
2013-03-04 09:17:00,18.7,12.9,29.94,West,274,10.4,11.7,78,0.00,,OVC,0.00,VWS V14.00,2013-03-04 14:17:00,
2013-03-04 10:52:00,20.3,13.4,29.94,West,280,10.1,11.7,74,0.00,,OVC,0.00,VWS V14.00,2013-03-04 15:52:00,
2013-03-04 10:57:00,20.3,13.4,29.94,West,280,10.1,11.7,74,0.00,,OVC,0.00,VWS V14.00,2013-03-04 15:57:00,
2013-03-04 11:02:00,20.4,13.6,29.94,WSW,256,7.8,11.7,74,0.00,,OVC,0.00,VWS V14.00,2013-03-04 16:02:00,
2013-03-04 11:07:00,20.4,13.6,29.94,WSW,256,7.8,11.7,74,0.00,,OVC,0.00,VWS V14.00,2013-03-04 16:07:00,
2013-03-04 11:12:00,20.4,13.6,29.94,WSW,256,7.8,11.7,74,0.00,,OVC,0.00,VWS V14.00,2013-03-04 16:12:00,
2013-03-04 11:17:00,20.7,13.4,29.93,West,263,7.3,11.7,73,0.00,,OVC,0.00,VWS V14.00,2013-03-04 16:17:00,
2013-03-04 11:19:00,20.7,13.4,29.93,West,263,7.3,11.7,73,0.00,,OVC,0.00,VWS V14.00,2013-03-04 16:19:00,
2013-03-04 11:23:00,20.7,13.4,29.93,West,263,7.3,11.7,73,0.00,,OVC,0.00,VWS V14.00,2013-03-04 16:23:00,
2013-03-04 11:28:00,20.7,13.4,29.93,West,263,7.3,11.7,73,0.00,,OVC,0.00,VWS V14.00,2013-03-04 16:28:00,
2013-03-04 13:13:00,23.8,15.0,29.92,WNW,291,11.5,11.7,68,0.00,,OVC,0.00,VWS V14.00,2013-03-04 18:13:00,
2013-03-04 13:14:00,23.8,15.0,29.92,WNW,291,11.5,11.7,68,0.00,,OVC,0.00,VWS V14.00,2013-03-04 18:14:00,
2013-03-04 13:18:00,23.8,15.0,29.92,WNW,291,11.5,11.7,68,0.00,,OVC,0.00,VWS V14.00,2013-03-04 18:18:00,
2013-03-04 13:23:00,23.8,15.0,29.92,WNW,291,11.5,11.7,68,0.00,,OVC,0.00,VWS V14.00,2013-03-04 18:23:00,
2013-03-04 15:33:00,27.9,17.2,29.93,WNW,294,3.0,11.7,64,0.00,,OVC,0.00,VWS V14.00,2013-03-04 20:33:00,
2013-03-04 15:34:00,27.9,17.2,29.93,WNW,294,3.0,11.7,64,0.00,,OVC,0.00,VWS V14.00,2013-03-04 20:34:00,
2013-03-04 15:38:00,27.9,17.2,29.93,WNW,294,3.0,11.7,64,0.00,,OVC,0.00,VWS V14.00,2013-03-04 20:38:00,
2013-03-04 15:43:00,27.9,17.2,29.93,WNW,294,3.0,11.7,64,0.00,,OVC,0.00,VWS V14.00,2013-03-04 20:43:00,
2013-03-04 16:03:00,28.3,17.7,29.93,West,277,5.8,11.7,64,0.00,,OVC,0.00,VWS V14.00,2013-03-04 21:03:00,
2013-03-04 16:05:00,28.3,17.7,29.93,West,277,5.8,11.7,64,0.00,,OVC,0.00,VWS V14.00,2013-03-04 21:05:00,
2013-03-04 16:08:00,28.3,17.7,29.93,West,277,5.8,11.7,64,0.00,,OVC,0.00,VWS V14.00,2013-03-04 21:08:00,
2013-03-04 16:13:00,28.3,17.7,29.93,West,277,5.8,11.7,64,0.00,,OVC,0.00,VWS V14.00,2013-03-04 21:13:00,
2013-03-04 16:33:00,28.1,18.3,29.94,NW,311,9.0,11.7,66,0.00,,OVC,0.00,VWS V14.00,2013-03-04 21:33:00,
2013-03-04 16:34:00,28.1,18.3,29.94,NW,311,9.0,11.7,66,0.00,,OVC,0.00,VWS V14.00,2013-03-04 21:34:00,
2013-03-04 16:38:00,28.1,18.3,29.94,NW,311,9.0,11.7,66,0.00,,OVC,0.00,VWS V14.00,2013-03-04 21:38:00,
2013-03-04 16:43:00,28.1,18.3,29.94,NW,311,9.0,11.7,66,0.00,,OVC,0.00,VWS V14.00,2013-03-04 21:43:00,
2013-03-04 17:08:00,27.9,18.9,29.96,NW,307,5.2,11.7,68,0.00,,OVC,0.00,VWS V14.00,2013-03-04 22:08:00,
2013-03-04 17:13:00,27.9,18.9,29.96,NW,307,5.2,11.7,68,0.00,,OVC,0.00,VWS V14.00,2013-03-04 22:13:00,
2013-03-04 17:18:00,27.9,18.9,29.96,NW,307,5.2,11.7,68,0.00,,OVC,0.00,VWS V14.00,2013-03-04 22:18:00,
2013-03-04 17:23:00,27.8,19.8,29.96,NNW,335,5.3,11.7,71,0.00,,OVC,0.00,VWS V14.00,2013-03-04 22:23:00,
2013-03-04 17:25:00,27.8,19.8,29.96,NNW,335,5.3,11.7,71,0.00,,OVC,0.00,VWS V14.00,2013-03-04 22:25:00,
2013-03-04 17:28:00,27.8,19.8,29.96,NNW,335,5.3,11.7,71,0.00,,OVC,0.00,VWS V14.00,2013-03-04 22:28:00,
2013-03-04 17:33:00,27.8,19.8,29.96,NNW,335,5.3,11.7,71,0.00,,OVC,0.00,VWS V14.00,2013-03-04 22:33:00,
2013-03-04 18:25:00,26.0,19.9,29.99,NW,316,0.7,3.2,77,0.00,,OVC,0.00,VWS V14.00,2013-03-04 23:25:00,
2013-03-04 18:30:00,26.0,19.9,29.99,NW,316,0.7,3.2,77,0.00,,SCT,0.00,VWS V14.00,2013-03-04 23:30:00,
2013-03-04 18:33:00,26.1,20.0,29.99,West,276,0.0,3.4,77,0.00,,OVC,0.00,VWS V14.00,2013-03-04 23:33:00,
2013-03-04 18:38:00,25.9,19.7,30.00,West,276,0.0,3.4,77,0.00,,OVC,0.00,VWS V14.00,2013-03-04 23:38:00,
2013-03-04 18:43:00,26.0,20.1,30.00,WNW,298,1.6,3.4,78,0.00,,OVC,0.00,VWS V14.00,2013-03-04 23:43:00,
2013-03-04 18:48:00,26.0,20.0,30.00,WNW,294,0.0,3.4,78,0.00,,OVC,0.00,VWS V14.00,2013-03-04 23:48:00,
2013-03-04 18:53:00,25.9,19.8,30.00,WNW,294,0.0,3.4,77,0.00,,OVC,0.00,VWS V14.00,2013-03-04 23:53:00,
2013-03-04 18:58:00,26.0,19.9,30.00,WNW,294,0.0,0.0,78,0.00,,OVC,0.00,VWS V14.00,2013-03-04 23:58:00,
2013-03-04 19:00:00,26.1,20.0,30.00,WNW,294,0.0,3.4,77,0.00,,SCT,0.00,VWS V14.00,2013-03-05 00:00:00,
2013-03-04 19:03:00,25.9,19.9,30.00,NNW,330,0.0,4.2,78,0.00,,OVC,0.00,VWS V14.00,2013-03-05 00:03:00,
2013-03-04 19:08:00,25.8,19.9,30.00,NNW,332,0.0,4.2,78,0.00,,OVC,0.00,VWS V14.00,2013-03-05 00:08:00,
2013-03-04 19:13:00,25.8,19.9,30.00,NNW,332,0.0,4.2,78,0.00,,OVC,0.00,VWS V14.00,2013-03-05 00:13:00,
2013-03-04 19:18:00,25.7,19.9,30.00,WNW,294,2.0,5.4,78,0.00,,OVC,0.00,VWS V14.00,2013-03-05 00:18:00,
2013-03-04 19:23:00,25.7,19.9,30.00,NW,305,0.0,5.4,78,0.00,,OVC,0.00,VWS V14.00,2013-03-05 00:23:00,
2013-03-04 19:28:00,25.7,20.0,30.00,WNW,301,0.0,0.0,79,0.00,,OVC,0.00,VWS V14.00,2013-03-05 00:28:00,
2013-03-04 19:30:00,25.6,19.9,30.00,WNW,301,0.0,5.6,79,0.00,,SCT,0.00,VWS V14.00,2013-03-05 00:30:00,
2013-03-04 19:33:00,25.5,19.9,30.01,NW,309,0.0,4.9,79,0.00,,OVC,0.00,VWS V14.00,2013-03-05 00:33:00,
2013-03-04 19:38:00,25.6,20.0,30.01,WNW,295,3.2,4.9,79,0.00,,OVC,0.00,VWS V14.00,2013-03-05 00:38:00,
2013-03-04 19:43:00,25.4,19.9,30.01,NNW,338,5.1,8.8,79,0.00,,OVC,0.00,VWS V14.00,2013-03-05 00:43:00,
2013-03-04 19:48:00,25.4,20.0,30.01,NW,311,0.7,9.4,80,0.00,,OVC,0.00,VWS V14.00,2013-03-05 00:48:00,
2013-03-04 19:53:00,25.3,20.2,30.02,NW,304,3.7,9.4,81,0.00,,OVC,0.00,VWS V14.00,2013-03-05 00:53:00,
2013-03-04 19:58:00,25.3,20.4,30.02,West,278,3.9,7.3,81,0.00,,OVC,0.00,VWS V14.00,2013-03-05 00:58:00,
2013-03-04 20:00:00,25.4,20.3,30.02,West,267,5.7,9.4,81,0.00,,SCT,0.00,VWS V14.00,2013-03-05 01:00:00,
2013-03-04 20:03:00,25.4,20.7,30.02,West,266,3.6,7.3,82,0.00,,OVC,0.00,VWS V14.00,2013-03-05 01:03:00,
2013-03-04 20:08:00,24.9,20.6,30.02,WNW,298,4.2,8.0,84,0.00,,OVC,0.00,VWS V14.00,2013-03-05 01:08:00,
2013-03-04 20:13:00,25.2,21.1,30.02,WNW,285,3.2,8.0,84,0.00,,OVC,0.00,VWS V14.00,2013-03-05 01:13:00,
2013-03-04 20:18:00,24.8,20.5,30.02,NW,311,4.7,8.0,84,0.00,,OVC,0.00,VWS V14.00,2013-03-05 01:18:00,
2013-03-04 20:23:00,24.3,20.0,30.02,West,274,5.7,11.4,84,0.00,,OVC,0.00,VWS V14.00,2013-03-05 01:23:00,
2013-03-04 20:28:00,24.3,20.1,30.02,NW,315,3.9,10.4,84,0.00,,OVC,0.00,VWS V14.00,2013-03-05 01:28:00,
2013-03-04 20:30:00,24.5,20.3,30.02,WNW,288,4.5,11.4,84,0.00,,SCT,0.00,VWS V14.00,2013-03-05 01:30:00,
2013-03-04 20:33:00,24.5,20.4,30.02,WNW,292,5.4,10.4,84,0.00,,OVC,0.00,VWS V14.00,2013-03-05 01:33:00,
2013-03-04 20:38:00,24.3,20.2,30.02,West,262,7.1,10.4,84,0.00,,OVC,0.00,VWS V14.00,2013-03-05 01:38:00,
2013-03-04 20:43:00,24.4,20.4,30.02,WNW,284,6.9,10.4,84,0.00,,OVC,0.00,VWS V14.00,2013-03-05 01:43:00,
2013-03-04 20:48:00,24.5,20.6,30.02,WNW,294,3.2,10.4,85,0.00,,OVC,0.00,VWS V14.00,2013-03-05 01:48:00,
2013-03-04 20:53:00,24.5,20.6,30.03,West,271,2.4,10.4,85,0.00,,OVC,0.00,VWS V14.00,2013-03-05 01:53:00,
2013-03-04 20:58:00,24.3,20.6,30.03,WNW,291,2.5,3.9,86,0.00,,OVC,0.00,VWS V14.00,2013-03-05 01:58:00,
2013-03-04 21:00:00,24.4,20.6,30.02,NW,304,2.5,10.4,85,0.00,,SCT,0.00,VWS V14.00,2013-03-05 02:00:00,
2013-03-04 21:03:00,24.3,20.6,30.03,NW,312,3.6,5.3,86,0.00,,OVC,0.00,VWS V14.00,2013-03-05 02:03:00,
2013-03-04 21:08:00,24.3,20.5,30.03,NW,305,3.9,6.6,85,0.00,,OVC,0.00,VWS V14.00,2013-03-05 02:08:00,
2013-03-04 21:13:00,24.3,20.4,30.03,WSW,242,2.9,7.5,85,0.00,,OVC,0.00,VWS V14.00,2013-03-05 02:13:00,
2013-03-04 21:18:00,24.3,20.4,30.03,West,270,1.7,7.5,85,0.00,,OVC,0.00,VWS V14.00,2013-03-05 02:18:00,
2013-03-04 21:23:00,24.3,20.4,30.03,WNW,290,5.2,7.5,85,0.00,,OVC,0.00,VWS V14.00,2013-03-05 02:23:00,
2013-03-04 21:28:00,24.5,20.6,30.03,WNW,285,1.8,3.4,85,0.00,,OVC,0.00,VWS V14.00,2013-03-05 02:28:00,
2013-03-04 21:30:00,24.4,20.5,30.03,WNW,298,2.3,7.5,85,0.00,,SCT,0.00,VWS V14.00,2013-03-05 02:30:00,
2013-03-04 21:33:00,24.1,20.4,30.03,NW,304,3.5,5.8,86,0.00,,OVC,0.00,VWS V14.00,2013-03-05 02:33:00,
2013-03-04 21:38:00,24.2,20.5,30.04,SW,214,1.6,6.5,86,0.00,,OVC,0.00,VWS V14.00,2013-03-05 02:38:00,
2013-03-04 21:43:00,24.1,20.5,30.04,WNW,291,3.9,6.5,86,0.00,,OVC,0.00,VWS V14.00,2013-03-05 02:43:00,
2013-03-04 21:48:00,24.1,20.5,30.04,WNW,297,4.5,7.5,86,0.00,,OVC,0.00,VWS V14.00,2013-03-05 02:48:00,
2013-03-04 21:53:00,23.9,20.2,30.04,WNW,291,4.1,9.6,85,0.00,,OVC,0.00,VWS V14.00,2013-03-05 02:53:00,
2013-03-04 21:59:00,23.9,20.2,30.04,WNW,297,6.2,10.1,85,0.00,,OVC,0.00,VWS V14.00,2013-03-05 02:59:00,
2013-03-04 22:00:00,23.9,20.2,30.04,NW,318,0.0,9.6,85,0.00,,SCT,0.00,VWS V14.00,2013-03-05 03:00:00,
2013-03-04 22:04:00,23.9,20.2,30.04,West,274,5.6,10.1,86,0.00,,OVC,0.00,VWS V14.00,2013-03-05 03:04:00,
2013-03-04 22:09:00,23.7,20.1,30.04,West,278,5.8,10.1,86,0.00,,OVC,0.00,VWS V14.00,2013-03-05 03:09:00,
2013-03-04 22:14:00,23.8,20.2,30.04,West,271,5.6,10.1,86,0.00,,OVC,0.00,VWS V14.00,2013-03-05 03:14:00,
2013-03-04 22:19:00,23.7,20.2,30.03,West,270,4.2,10.1,86,0.00,,OVC,0.00,VWS V14.00,2013-03-05 03:19:00,
2013-03-04 22:24:00,23.6,20.1,30.03,WNW,291,4.8,10.1,86,0.00,,OVC,0.00,VWS V14.00,2013-03-05 03:24:00,
2013-03-04 22:29:00,23.5,20.0,30.03,WNW,285,4.2,8.3,86,0.00,,OVC,0.00,VWS V14.00,2013-03-05 03:29:00,
2013-03-04 22:30:00,23.3,19.8,30.03,WNW,287,5.2,10.1,86,0.00,,SCT,0.00,VWS V14.00,2013-03-05 03:30:00,
2013-03-04 22:34:00,23.3,19.8,30.04,WNW,290,3.7,8.3,86,0.00,,OVC,0.00,VWS V14.00,2013-03-05 03:34:00,
2013-03-04 22:39:00,23.2,19.7,30.04,WNW,298,4.6,8.3,86,0.00,,OVC,0.00,VWS V14.00,2013-03-05 03:39:00,
2013-03-04 22:44:00,23.1,19.6,30.04,West,263,4.4,8.3,86,0.00,,OVC,0.00,VWS V14.00,2013-03-05 03:44:00,
2013-03-04 22:49:00,23.1,19.5,30.04,WNW,283,3.4,8.3,86,0.00,,OVC,0.00,VWS V14.00,2013-03-05 03:49:00,
2013-03-04 22:54:00,23.0,19.3,30.04,West,281,3.9,8.3,85,0.00,,OVC,0.00,VWS V14.00,2013-03-05 03:54:00,
2013-03-04 22:59:00,23.2,19.4,30.04,WSW,255,1.2,5.6,85,0.00,,OVC,0.00,VWS V14.00,2013-03-05 03:59:00,
2013-03-04 23:00:00,23.1,19.4,30.04,WNW,295,1.9,8.3,85,0.00,,SCT,0.00,VWS V14.00,2013-03-05 04:00:00,
2013-03-04 23:04:00,23.0,19.2,30.04,SSW,211,0.7,5.6,85,0.00,,OVC,0.00,VWS V14.00,2013-03-05 04:04:00,
2013-03-04 23:09:00,23.0,19.1,30.04,SSW,211,0.0,5.6,85,0.00,,OVC,0.00,VWS V14.00,2013-03-05 04:09:00,
2013-03-04 23:14:00,23.0,19.1,30.04,SSW,211,0.0,5.6,85,0.00,,OVC,0.00,VWS V14.00,2013-03-05 04:14:00,
2013-03-04 23:19:00,22.8,18.8,30.05,SSW,211,0.0,5.6,84,0.00,,OVC,0.00,VWS V14.00,2013-03-05 04:19:00,
2013-03-04 23:24:00,22.8,18.7,30.05,SSW,211,0.0,5.6,84,0.00,,OVC,0.00,VWS V14.00,2013-03-05 04:24:00,
2013-03-04 23:29:00,22.8,18.7,30.04,West,270,4.4,4.5,84,0.00,,OVC,0.00,VWS V14.00,2013-03-05 04:29:00,
2013-03-04 23:30:00,22.8,18.7,30.04,SSW,211,0.0,5.6,84,0.00,,SCT,0.00,VWS V14.00,2013-03-05 04:30:00,
2013-03-04 23:34:00,22.8,18.7,30.05,WNW,287,0.0,4.7,84,0.00,,OVC,0.00,VWS V14.00,2013-03-05 04:34:00,
2013-03-04 23:39:00,22.7,18.6,30.05,WNW,287,0.0,4.7,84,0.00,,OVC,0.00,VWS V14.00,2013-03-05 04:39:00,
2013-03-04 23:44:00,22.8,18.7,30.05,WNW,287,0.0,4.7,84,0.00,,OVC,0.00,VWS V14.00,2013-03-05 04:44:00,
2013-03-04 23:49:00,22.6,18.5,30.05,WNW,287,0.0,4.7,84,0.00,,OVC,0.00,VWS V14.00,2013-03-05 04:49:00,
2013-03-04 23:54:00,22.6,18.5,30.05,WNW,287,0.0,4.7,84,0.00,,OVC,0.00,VWS V14.00,2013-03-05 04:54:00,